sensor_id;sensor_type;location;lat;lon;timestamp;temperature;humidity
55365;DHT22;41245;45.384;20.390;2023-01-15T00:35:14;179.90;2252.80
55365;DHT22;41245;45.384;20.390;2023-01-15T00:54:49;179.80;2252.80
55365;DHT22;41245;45.384;20.390;2023-01-15T01:11:52;179.90;2252.80
55365;DHT22;41245;45.384;20.390;2023-01-15T01:33:53;179.80;2252.80
55365;DHT22;41245;45.384;20.390;2023-01-15T02:43:45;205.00;2252.80
55365;DHT22;41245;45.384;20.390;2023-01-15T03:08:51;205.20;2252.80
55365;DHT22;41245;45.384;20.390;2023-01-15T03:31:44;180.10;2252.80
55365;DHT22;41245;45.384;20.390;2023-01-15T03:59:28;179.70;2252.80
55365;DHT22;41245;45.384;20.390;2023-01-15T04:33:40;179.80;2252.80
55365;DHT22;41245;45.384;20.390;2023-01-15T05:43:07;154.20;2252.80
55365;DHT22;41245;45.384;20.390;2023-01-15T06:07:30;128.80;2252.80
55365;DHT22;41245;45.384;20.390;2023-01-15T06:09:55;128.70;2252.80
55365;DHT22;41245;45.384;20.390;2023-01-15T06:12:21;128.60;2252.80
55365;DHT22;41245;45.384;20.390;2023-01-15T06:14:46;128.40;2252.80
55365;DHT22;41245;45.384;20.390;2023-01-15T06:17:12;128.30;2252.80
55365;DHT22;41245;45.384;20.390;2023-01-15T06:19:39;128.30;2252.80
55365;DHT22;41245;45.384;20.390;2023-01-15T06:22:04;128.40;2252.80
55365;DHT22;41245;45.384;20.390;2023-01-15T06:24:30;128.30;2252.80
55365;DHT22;41245;45.384;20.390;2023-01-15T06:26:56;128.30;2252.80
55365;DHT22;41245;45.384;20.390;2023-01-15T06:29:21;128.40;2252.80
55365;DHT22;41245;45.384;20.390;2023-01-15T06:31:47;128.40;2252.80
55365;DHT22;41245;45.384;20.390;2023-01-15T06:34:13;128.50;2252.80
55365;DHT22;41245;45.384;20.390;2023-01-15T06:36:39;128.30;2252.80
55365;DHT22;41245;45.384;20.390;2023-01-15T06:39:05;128.10;2252.80
55365;DHT22;41245;45.384;20.390;2023-01-15T06:41:30;128.10;2252.80
55365;DHT22;41245;45.384;20.390;2023-01-15T06:44:16;128.10;2252.80
55365;DHT22;41245;45.384;20.390;2023-01-15T06:47:11;128.00;2252.80
55365;DHT22;41245;45.384;20.390;2023-01-15T06:49:50;128.10;2252.80
55365;DHT22;41245;45.384;20.390;2023-01-15T06:52:16;128.10;2252.80
55365;DHT22;41245;45.384;20.390;2023-01-15T06:54:42;128.10;2252.80
55365;DHT22;41245;45.384;20.390;2023-01-15T06:57:08;128.10;2252.80
55365;DHT22;41245;45.384;20.390;2023-01-15T06:59:33;128.10;2252.80
55365;DHT22;41245;45.384;20.390;2023-01-15T07:01:59;128.00;2252.80
55365;DHT22;41245;45.384;20.390;2023-01-15T07:04:25;128.10;2252.80
55365;DHT22;41245;45.384;20.390;2023-01-15T07:06:50;128.20;2252.80
55365;DHT22;41245;45.384;20.390;2023-01-15T07:09:16;128.00;2252.80
55365;DHT22;41245;45.384;20.390;2023-01-15T07:11:42;128.10;2252.80
55365;DHT22;41245;45.384;20.390;2023-01-15T07:14:22;128.10;2252.80
55365;DHT22;41245;45.384;20.390;2023-01-15T07:16:48;128.00;2252.80
55365;DHT22;41245;45.384;20.390;2023-01-15T07:19:15;128.10;2252.80
55365;DHT22;41245;45.384;20.390;2023-01-15T07:21:41;128.30;2252.80
55365;DHT22;41245;45.384;20.390;2023-01-15T07:24:07;128.30;2252.80
55365;DHT22;41245;45.384;20.390;2023-01-15T07:26:33;128.60;2252.80
55365;DHT22;41245;45.384;20.390;2023-01-15T07:28:59;128.70;2252.80
55365;DHT22;41245;45.384;20.390;2023-01-15T07:31:24;128.80;2252.80
55365;DHT22;41245;45.384;20.390;2023-01-15T07:33:50;128.80;2252.80
55365;DHT22;41245;45.384;20.390;2023-01-15T07:36:16;128.90;2252.80
55365;DHT22;41245;45.384;20.390;2023-01-15T07:38:41;128.90;2252.80
55365;DHT22;41245;45.384;20.390;2023-01-15T07:41:07;128.90;2252.80
55365;DHT22;41245;45.384;20.390;2023-01-15T07:43:51;153.60;2252.80
55365;DHT22;41245;45.384;20.390;2023-01-15T07:46:35;153.80;2252.80
55365;DHT22;41245;45.384;20.390;2023-01-15T07:49:36;154.00;2252.80
55365;DHT22;41245;45.384;20.390;2023-01-15T07:52:17;154.00;2252.80
55365;DHT22;41245;45.384;20.390;2023-01-15T07:54:47;154.10;2252.80
55365;DHT22;41245;45.384;20.390;2023-01-15T07:57:14;154.30;2252.80
55365;DHT22;41245;45.384;20.390;2023-01-15T07:59:39;154.30;2252.80
55365;DHT22;41245;45.384;20.390;2023-01-15T08:02:05;154.40;2252.80
55365;DHT22;41245;45.384;20.390;2023-01-15T08:04:31;154.50;2252.80
55365;DHT22;41245;45.384;20.390;2023-01-15T08:07:03;179.20;2252.80
55365;DHT22;41245;45.384;20.390;2023-01-15T08:09:29;179.40;2252.80
55365;DHT22;41245;45.384;20.390;2023-01-15T08:11:57;179.40;2252.80
55365;DHT22;41245;45.384;20.390;2023-01-15T08:14:42;179.50;2252.80
55365;DHT22;41245;45.384;20.390;2023-01-15T08:17:26;179.50;2252.80
55365;DHT22;41245;45.384;20.390;2023-01-15T08:19:51;179.50;2252.80
55365;DHT22;41245;45.384;20.390;2023-01-15T08:22:17;179.70;2252.80
55365;DHT22;41245;45.384;20.390;2023-01-15T08:24:43;179.90;2252.80
55365;DHT22;41245;45.384;20.390;2023-01-15T08:27:08;179.90;2252.80
55365;DHT22;41245;45.384;20.390;2023-01-15T08:29:34;179.90;2252.80
55365;DHT22;41245;45.384;20.390;2023-01-15T08:31:59;179.80;2252.80
55365;DHT22;41245;45.384;20.390;2023-01-15T08:34:25;179.70;2252.80
55365;DHT22;41245;45.384;20.390;2023-01-15T08:36:51;179.80;2252.80
55365;DHT22;41245;45.384;20.390;2023-01-15T08:39:21;179.80;2252.80
55365;DHT22;41245;45.384;20.390;2023-01-15T08:41:47;180.00;2252.80
55365;DHT22;41245;45.384;20.390;2023-01-15T08:44:13;204.80;2252.80
55365;DHT22;41245;45.384;20.390;2023-01-15T08:46:41;205.10;2252.80
55365;DHT22;41245;45.384;20.390;2023-01-15T08:49:09;205.10;2252.80
55365;DHT22;41245;45.384;20.390;2023-01-15T08:51:34;205.10;2252.80
55365;DHT22;41245;45.384;20.390;2023-01-15T08:54:00;205.10;2252.80
55365;DHT22;41245;45.384;20.390;2023-01-15T08:56:26;205.10;2252.80
55365;DHT22;41245;45.384;20.390;2023-01-15T08:58:51;205.10;2252.80
55365;DHT22;41245;45.384;20.390;2023-01-15T09:01:17;205.10;2252.80
55365;DHT22;41245;45.384;20.390;2023-01-15T09:03:42;205.10;2252.80
55365;DHT22;41245;45.384;20.390;2023-01-15T09:06:09;205.10;2252.80
55365;DHT22;41245;45.384;20.390;2023-01-15T09:08:36;205.10;2252.80
55365;DHT22;41245;45.384;20.390;2023-01-15T09:11:04;205.10;2252.80
55365;DHT22;41245;45.384;20.390;2023-01-15T09:13:30;205.20;2252.80
55365;DHT22;41245;45.384;20.390;2023-01-15T09:16:00;205.40;2252.80
55365;DHT22;41245;45.384;20.390;2023-01-15T09:18:26;205.20;2252.80
55365;DHT22;41245;45.384;20.390;2023-01-15T09:20:52;205.20;2252.80
55365;DHT22;41245;45.384;20.390;2023-01-15T09:23:17;205.10;2252.80
55365;DHT22;41245;45.384;20.390;2023-01-15T09:25:57;205.10;2252.80
55365;DHT22;41245;45.384;20.390;2023-01-15T09:28:23;205.00;2252.80
55365;DHT22;41245;45.384;20.390;2023-01-15T09:30:49;204.90;2252.80
55365;DHT22;41245;45.384;20.390;2023-01-15T09:33:15;205.10;2252.80
55365;DHT22;41245;45.384;20.390;2023-01-15T09:35:44;205.10;2252.80
55365;DHT22;41245;45.384;20.390;2023-01-15T09:38:14;205.10;2252.80
55365;DHT22;41245;45.384;20.390;2023-01-15T09:40:47;205.20;2252.80
55365;DHT22;41245;45.384;20.390;2023-01-15T09:43:39;205.30;2252.80
55365;DHT22;41245;45.384;20.390;2023-01-15T09:49:31;205.40;2252.80
55365;DHT22;41245;45.384;20.390;2023-01-15T09:57:49;205.70;2252.80
55365;DHT22;41245;45.384;20.390;2023-01-15T10:00:21;230.40;2252.80
55365;DHT22;41245;45.384;20.390;2023-01-15T10:02:53;230.60;2252.80
55365;DHT22;41245;45.384;20.390;2023-01-15T10:05:47;230.60;2252.80
55365;DHT22;41245;45.384;20.390;2023-01-15T10:08:25;230.70;2252.80
55365;DHT22;41245;45.384;20.390;2023-01-15T10:11:04;230.70;2252.80
55365;DHT22;41245;45.384;20.390;2023-01-15T10:16:07;230.70;2252.80
55365;DHT22;41245;45.384;20.390;2023-01-15T10:18:34;230.70;2252.80
55365;DHT22;41245;45.384;20.390;2023-01-15T10:37:34;231.00;2252.80
55365;DHT22;41245;45.384;20.390;2023-01-15T10:40:17;231.10;2252.80
55365;DHT22;41245;45.384;20.390;2023-01-15T10:43:06;231.10;2252.80
55365;DHT22;41245;45.384;20.390;2023-01-15T10:45:48;231.20;2252.80
55365;DHT22;41245;45.384;20.390;2023-01-15T10:51:20;231.30;2252.80
55365;DHT22;41245;45.384;20.390;2023-01-15T10:53:54;231.30;2252.80
55365;DHT22;41245;45.384;20.390;2023-01-15T11:01:39;256.10;2252.80
55365;DHT22;41245;45.384;20.390;2023-01-15T11:04:10;256.10;2252.80
55365;DHT22;41245;45.384;20.390;2023-01-15T11:06:40;256.20;2252.80
55365;DHT22;41245;45.384;20.390;2023-01-15T11:09:08;256.20;2252.80
55365;DHT22;41245;45.384;20.390;2023-01-15T11:14:41;256.30;2252.80
55365;DHT22;41245;45.384;20.390;2023-01-15T11:20:31;256.30;2252.80
55365;DHT22;41245;45.384;20.390;2023-01-15T11:23:06;256.20;2252.80
55365;DHT22;41245;45.384;20.390;2023-01-15T11:25:32;256.30;2252.80
55365;DHT22;41245;45.384;20.390;2023-01-15T11:28:04;256.40;2252.80
55365;DHT22;41245;45.384;20.390;2023-01-15T11:30:31;256.30;2252.80
55365;DHT22;41245;45.384;20.390;2023-01-15T11:32:59;256.30;2252.80
55365;DHT22;41245;45.384;20.390;2023-01-15T11:35:28;256.40;2252.80
55365;DHT22;41245;45.384;20.390;2023-01-15T11:38:21;256.50;2252.80
55365;DHT22;41245;45.384;20.390;2023-01-15T11:40:52;256.50;2252.80
55365;DHT22;41245;45.384;20.390;2023-01-15T11:43:21;256.50;2252.80
55365;DHT22;41245;45.384;20.390;2023-01-15T11:46:18;256.50;2252.80
55365;DHT22;41245;45.384;20.390;2023-01-15T11:49:08;256.60;2252.80
55365;DHT22;41245;45.384;20.390;2023-01-15T11:51:54;256.60;2252.80
55365;DHT22;41245;45.384;20.390;2023-01-15T11:54:22;256.70;2252.80
55365;DHT22;41245;45.384;20.390;2023-01-15T11:56:50;256.60;2252.80
55365;DHT22;41245;45.384;20.390;2023-01-15T11:59:17;256.60;2252.80
55365;DHT22;41245;45.384;20.390;2023-01-15T12:02:03;256.70;2252.80
55365;DHT22;41245;45.384;20.390;2023-01-15T12:04:52;256.70;2252.80
55365;DHT22;41245;45.384;20.390;2023-01-15T12:07:19;256.70;2252.80
55365;DHT22;41245;45.384;20.390;2023-01-15T12:13:19;256.70;2252.80
55365;DHT22;41245;45.384;20.390;2023-01-15T12:27:38;256.90;2252.80
55365;DHT22;41245;45.384;20.390;2023-01-15T12:32:42;256.90;2252.80
55365;DHT22;41245;45.384;20.390;2023-01-15T12:35:22;256.90;2252.80
55365;DHT22;41245;45.384;20.390;2023-01-15T12:37:56;256.90;2252.80
55365;DHT22;41245;45.384;20.390;2023-01-15T12:40:53;256.80;2252.80
55365;DHT22;41245;45.384;20.390;2023-01-15T12:43:24;256.80;2252.80
55365;DHT22;41245;45.384;20.390;2023-01-15T12:46:18;256.90;2252.80
55365;DHT22;41245;45.384;20.390;2023-01-15T12:48:51;281.60;2278.40
55365;DHT22;41245;45.384;20.390;2023-01-15T12:51:49;281.60;2278.40
55365;DHT22;41245;45.384;20.390;2023-01-15T12:54:22;281.60;2278.40
55365;DHT22;41245;45.384;20.390;2023-01-15T12:57:32;281.60;2278.40
55365;DHT22;41245;45.384;20.390;2023-01-15T13:00:10;281.70;2278.40
55365;DHT22;41245;45.384;20.390;2023-01-15T13:05:40;281.80;2278.40
55365;DHT22;41245;45.384;20.390;2023-01-15T13:10:41;281.80;2278.40
55365;DHT22;41245;45.384;20.390;2023-01-15T13:21:33;281.70;2278.40
55365;DHT22;41245;45.384;20.390;2023-01-15T13:32:05;281.90;2278.40
55365;DHT22;41245;45.384;20.390;2023-01-15T13:39:42;281.60;2278.40
55365;DHT22;41245;45.384;20.390;2023-01-15T13:42:19;281.60;2278.40
55365;DHT22;41245;45.384;20.390;2023-01-15T13:47:34;281.70;2278.40
55365;DHT22;41245;45.384;20.390;2023-01-15T13:50:15;281.70;2278.40
55365;DHT22;41245;45.384;20.390;2023-01-15T13:52:41;281.70;2278.40
55365;DHT22;41245;45.384;20.390;2023-01-15T13:55:19;281.70;2278.40
55365;DHT22;41245;45.384;20.390;2023-01-15T13:57:45;281.60;2278.40
55365;DHT22;41245;45.384;20.390;2023-01-15T14:03:00;281.60;2278.40
55365;DHT22;41245;45.384;20.390;2023-01-15T14:05:30;256.90;2252.80
55365;DHT22;41245;45.384;20.390;2023-01-15T14:07:56;256.90;2252.80
55365;DHT22;41245;45.384;20.390;2023-01-15T14:19:13;256.70;2252.80
55365;DHT22;41245;45.384;20.390;2023-01-15T14:22:09;256.60;2252.80
55365;DHT22;41245;45.384;20.390;2023-01-15T14:25:14;256.50;2252.80
55365;DHT22;41245;45.384;20.390;2023-01-15T14:30:26;256.60;2252.80
55365;DHT22;41245;45.384;20.390;2023-01-15T14:35:36;256.60;2252.80
55365;DHT22;41245;45.384;20.390;2023-01-15T14:38:07;256.50;2252.80
55365;DHT22;41245;45.384;20.390;2023-01-15T14:40:37;256.50;2252.80
55365;DHT22;41245;45.384;20.390;2023-01-15T14:43:17;256.40;2252.80
55365;DHT22;41245;45.384;20.390;2023-01-15T14:45:45;256.40;2252.80
55365;DHT22;41245;45.384;20.390;2023-01-15T14:50:49;256.30;2252.80
55365;DHT22;41245;45.384;20.390;2023-01-15T14:53:25;256.20;2252.80
55365;DHT22;41245;45.384;20.390;2023-01-15T14:58:56;256.20;2252.80
55365;DHT22;41245;45.384;20.390;2023-01-15T15:01:44;256.10;2252.80
55365;DHT22;41245;45.384;20.390;2023-01-15T15:07:14;256.10;2252.80
55365;DHT22;41245;45.384;20.390;2023-01-15T15:12:41;231.30;2252.80
55365;DHT22;41245;45.384;20.390;2023-01-15T15:18:20;231.10;2252.80
55365;DHT22;41245;45.384;20.390;2023-01-15T15:26:36;231.00;2252.80
55365;DHT22;41245;45.384;20.390;2023-01-15T15:31:55;230.90;2252.80
55365;DHT22;41245;45.384;20.390;2023-01-15T15:34:36;230.90;2252.80
55365;DHT22;41245;45.384;20.390;2023-01-15T15:37:14;230.80;2252.80
55365;DHT22;41245;45.384;20.390;2023-01-15T15:40:03;230.70;2252.80
55365;DHT22;41245;45.384;20.390;2023-01-15T15:42:33;230.70;2252.80
55365;DHT22;41245;45.384;20.390;2023-01-15T15:45:27;230.70;2252.80
55365;DHT22;41245;45.384;20.390;2023-01-15T15:48:19;230.60;2252.80
55365;DHT22;41245;45.384;20.390;2023-01-15T15:51:05;230.60;2252.80
55365;DHT22;41245;45.384;20.390;2023-01-15T15:53:31;230.60;2252.80
55365;DHT22;41245;45.384;20.390;2023-01-15T15:55:57;230.50;2252.80
55365;DHT22;41245;45.384;20.390;2023-01-15T15:58:31;230.50;2252.80
55365;DHT22;41245;45.384;20.390;2023-01-15T16:00:58;230.40;2252.80
55365;DHT22;41245;45.384;20.390;2023-01-15T16:03:26;230.40;2252.80
55365;DHT22;41245;45.384;20.390;2023-01-15T16:05:59;205.70;2252.80
55365;DHT22;41245;45.384;20.390;2023-01-15T16:08:27;205.70;2252.80
55365;DHT22;41245;45.384;20.390;2023-01-15T16:10:55;205.60;2252.80
55365;DHT22;41245;45.384;20.390;2023-01-15T16:13:39;205.60;2252.80
55365;DHT22;41245;45.384;20.390;2023-01-15T16:16:06;205.60;2252.80
55365;DHT22;41245;45.384;20.390;2023-01-15T16:18:39;205.60;2252.80
55365;DHT22;41245;45.384;20.390;2023-01-15T16:21:10;205.60;2252.80
55365;DHT22;41245;45.384;20.390;2023-01-15T16:23:40;205.60;2252.80
55365;DHT22;41245;45.384;20.390;2023-01-15T16:26:17;230.60;2252.80
55365;DHT22;41245;45.384;20.390;2023-01-15T16:28:51;205.60;2252.80
55365;DHT22;41245;45.384;20.390;2023-01-15T16:31:18;205.60;2252.80
55365;DHT22;41245;45.384;20.390;2023-01-15T16:33:45;205.60;2252.80
55365;DHT22;41245;45.384;20.390;2023-01-15T16:36:11;205.60;2252.80
55365;DHT22;41245;45.384;20.390;2023-01-15T16:38:41;205.60;2252.80
55365;DHT22;41245;45.384;20.390;2023-01-15T16:41:25;205.40;2252.80
55365;DHT22;41245;45.384;20.390;2023-01-15T16:44:01;205.50;2252.80
55365;DHT22;41245;45.384;20.390;2023-01-15T16:46:31;205.50;2252.80
55365;DHT22;41245;45.384;20.390;2023-01-15T16:49:18;205.50;2252.80
55365;DHT22;41245;45.384;20.390;2023-01-15T16:51:45;205.50;2252.80
55365;DHT22;41245;45.384;20.390;2023-01-15T16:56:59;205.60;2252.80
55365;DHT22;41245;45.384;20.390;2023-01-15T17:01:51;205.40;2252.80
55365;DHT22;41245;45.384;20.390;2023-01-15T17:09:24;205.20;2252.80
55365;DHT22;41245;45.384;20.390;2023-01-15T17:11:51;205.20;2252.80
55365;DHT22;41245;45.384;20.390;2023-01-15T17:14:24;205.10;2252.80
55365;DHT22;41245;45.384;20.390;2023-01-15T17:19:44;205.10;2252.80
55365;DHT22;41245;45.384;20.390;2023-01-15T17:22:14;205.10;2252.80
55365;DHT22;41245;45.384;20.390;2023-01-15T17:24:52;205.00;2252.80
55365;DHT22;41245;45.384;20.390;2023-01-15T17:27:18;205.00;2252.80
55365;DHT22;41245;45.384;20.390;2023-01-15T17:29:44;204.90;2252.80
55365;DHT22;41245;45.384;20.390;2023-01-15T17:34:46;204.90;2252.80
55365;DHT22;41245;45.384;20.390;2023-01-15T17:37:12;204.90;2252.80
55365;DHT22;41245;45.384;20.390;2023-01-15T17:39:37;204.90;2252.80
55365;DHT22;41245;45.384;20.390;2023-01-15T17:42:14;204.90;2252.80
55365;DHT22;41245;45.384;20.390;2023-01-15T17:44:40;204.80;2252.80
55365;DHT22;41245;45.384;20.390;2023-01-15T17:47:06;180.10;2252.80
55365;DHT22;41245;45.384;20.390;2023-01-15T17:49:31;180.10;2252.80
55365;DHT22;41245;45.384;20.390;2023-01-15T17:51:57;180.10;2252.80
55365;DHT22;41245;45.384;20.390;2023-01-15T17:54:23;180.10;2252.80
55365;DHT22;41245;45.384;20.390;2023-01-15T17:57:08;180.10;2252.80
55365;DHT22;41245;45.384;20.390;2023-01-15T17:59:53;180.00;2252.80
55365;DHT22;41245;45.384;20.390;2023-01-15T18:02:37;179.90;2252.80
55365;DHT22;41245;45.384;20.390;2023-01-15T18:05:23;179.80;2252.80
55365;DHT22;41245;45.384;20.390;2023-01-15T18:37:13;179.80;2252.80
55365;DHT22;41245;45.384;20.390;2023-01-15T19:09:32;179.60;2252.80
55365;DHT22;41245;45.384;20.390;2023-01-15T20:39:57;180.00;2252.80
55365;DHT22;41245;45.384;20.390;2023-01-15T20:57:43;180.10;2252.80
55365;DHT22;41245;45.384;20.390;2023-01-15T21:07:30;204.80;2252.80
55365;DHT22;41245;45.384;20.390;2023-01-15T22:01:46;205.20;2252.80
55365;DHT22;41245;45.384;20.390;2023-01-15T23:42:25;205.10;2252.80
